Time;durP1;ratioP1;P1;durP2;ratioP2;P2;SDS_P1;SDS_P2;PMS_P1;PMS_P2;Temp;Humidity;BMP_temperature;BMP_pressure;BME280_temperature;BME280_humidity;BME280_pressure;Samples;Min_cycle;Max_cycle;Signal;HPM_P1;HPM_P2
2022/07/03 00:01:41;;;;;;;3.93;2.90;;;;;;;;;;4945761;29;20298;-83
2022/07/03 00:04:08;;;;;;;6.83;3.10;;;;;;;;;;4941964;29;20731;-82
2022/07/03 00:06:35;;;;;;;7.83;3.30;;;;;;;;;;4957516;29;20210;-83
2022/07/03 00:09:04;;;;;;;6.77;3.00;;;;;;;;;;4945796;29;20227;-81
2022/07/03 00:11:33;;;;;;;5.13;3.13;;;;;;;;;;4941946;29;20203;-81
2022/07/03 00:14:00;;;;;;;7.83;3.10;;;;;;;;;;4932447;29;20702;-82
2022/07/03 00:16:28;;;;;;;4.33;3.20;;;;;;;;;;4941396;29;20215;-80
2022/07/03 00:18:56;;;;;;;5.23;3.17;;;;;;;;;;4936937;29;20666;-81
2022/07/03 00:21:26;;;;;;;6.83;3.10;;;;;;;;;;4935298;29;20211;-81
2022/07/03 00:23:55;;;;;;;5.60;3.10;;;;;;;;;;4934873;29;20218;-82
2022/07/03 00:26:22;;;;;;;5.83;3.50;;;;;;;;;;4939118;29;20208;-81
2022/07/03 00:28:51;;;;;;;6.30;3.53;;;;;;;;;;4940749;29;20224;-81
2022/07/03 00:31:18;;;;;;;5.30;3.30;;;;;;;;;;4943297;28;20233;-80
2022/07/03 00:33:46;;;;;;;4.50;3.23;;;;;;;;;;4938773;29;20225;-82
2022/07/03 00:36:14;;;;;;;4.27;3.03;;;;;;;;;;4943192;29;20218;-80
2022/07/03 00:38:44;;;;;;;5.27;3.70;;;;;;;;;;4940173;29;20266;-83
2022/07/03 00:41:25;;;;;;;4.57;3.27;;;;;;;;;;4950623;29;20233;-81
2022/07/03 00:43:52;;;;;;;9.60;3.03;;;;;;;;;;4950016;29;20289;-81
2022/07/03 00:46:22;;;;;;;4.67;2.93;;;;;;;;;;4934773;29;20237;-81
2022/07/03 00:48:51;;;;;;;6.03;3.00;;;;;;;;;;4936235;29;20561;-81
2022/07/03 00:51:22;;;;;;;4.03;3.03;;;;;;;;;;4930406;29;20231;-81
2022/07/03 00:53:50;;;;;;;4.87;3.03;;;;;;;;;;4932412;29;20199;-81
2022/07/03 00:56:18;;;;;;;4.70;3.00;;;;;;;;;;4934918;29;20321;-81
2022/07/03 00:58:45;;;;;;;8.00;3.20;;;;;;;;;;4934926;29;20237;-81
2022/07/03 01:01:12;;;;;;;4.27;3.10;;;;;;;;;;4934860;29;20653;-82
2022/07/03 01:03:41;;;;;;;3.60;3.07;;;;;;;;;;4932430;29;20200;-82
2022/07/03 01:06:17;;;;;;;6.43;3.23;;;;;;;;;;4935149;29;20221;-81
2022/07/03 01:08:45;;;;;;;4.10;3.20;;;;;;;;;;4935011;29;20747;-83
2022/07/03 01:11:18;;;;;;;8.07;3.50;;;;;;;;;;4932320;29;20719;-82
2022/07/03 01:13:48;;;;;;;6.87;3.13;;;;;;;;;;4932436;29;20302;-82
2022/07/03 01:16:20;;;;;;;8.60;3.30;;;;;;;;;;4934498;29;20289;-82
2022/07/03 01:18:50;;;;;;;4.50;3.20;;;;;;;;;;4932349;29;20234;-82
2022/07/03 01:21:23;;;;;;;5.17;3.30;;;;;;;;;;4933895;29;20318;-82
2022/07/03 01:23:59;;;;;;;4.60;2.90;;;;;;;;;;4934373;29;20211;-82
2022/07/03 01:26:29;;;;;;;4.70;3.20;;;;;;;;;;4937506;29;20221;-81
2022/07/03 01:28:56;;;;;;;4.60;3.10;;;;;;;;;;4942017;29;20271;-80
2022/07/03 01:31:23;;;;;;;5.47;3.10;;;;;;;;;;4953750;28;20210;-80
2022/07/03 01:33:52;;;;;;;5.13;2.90;;;;;;;;;;4944456;28;20222;-81
2022/07/03 01:36:19;;;;;;;4.57;3.10;;;;;;;;;;4938506;29;20565;-81
2022/07/03 01:38:47;;;;;;;4.90;2.90;;;;;;;;;;4934387;29;20297;-81
2022/07/03 01:41:14;;;;;;;6.27;3.10;;;;;;;;;;4937409;28;20233;-81
2022/07/03 01:43:45;;;;;;;7.23;3.20;;;;;;;;;;4933002;29;20231;-81
2022/07/03 01:46:13;;;;;;;5.90;3.13;;;;;;;;;;4942092;29;20203;-81
2022/07/03 01:48:43;;;;;;;3.50;3.03;;;;;;;;;;4936446;29;20211;-80
2022/07/03 01:51:11;;;;;;;5.27;3.33;;;;;;;;;;4936326;29;20238;-81
2022/07/03 01:53:43;;;;;;;6.70;3.03;;;;;;;;;;4935538;29;20593;-82
2022/07/03 01:56:11;;;;;;;6.20;2.90;;;;;;;;;;4936502;29;20211;-81
2022/07/03 01:58:38;;;;;;;3.90;3.00;;;;;;;;;;4935140;29;20213;-81
2022/07/03 02:01:09;;;;;;;4.37;3.07;;;;;;;;;;4937638;29;20227;-82
2022/07/03 02:03:39;;;;;;;4.77;3.20;;;;;;;;;;4936916;29;20199;-81
2022/07/03 02:06:07;;;;;;;6.93;2.80;;;;;;;;;;4938066;29;20709;-81
2022/07/03 02:08:39;;;;;;;4.50;3.13;;;;;;;;;;4936666;29;20298;-82
2022/07/03 02:11:14;;;;;;;6.20;2.90;;;;;;;;;;4939110;29;20244;-81
2022/07/03 02:13:49;;;;;;;6.10;3.07;;;;;;;;;;4933128;29;20282;-80
2022/07/03 02:16:20;;;;;;;4.97;3.23;;;;;;;;;;4937432;29;20292;-81
2022/07/03 02:18:51;;;;;;;7.03;3.13;;;;;;;;;;4939229;29;20203;-81
2022/07/03 02:21:19;;;;;;;6.60;3.30;;;;;;;;;;4939519;29;20233;-81
2022/07/03 02:23:54;;;;;;;4.83;2.97;;;;;;;;;;4938594;29;20211;-81
2022/07/03 02:26:25;;;;;;;3.03;2.67;;;;;;;;;;4938386;29;20213;-80
2022/07/03 02:28:57;;;;;;;6.13;2.93;;;;;;;;;;4937168;29;20207;-80
2022/07/03 02:31:28;;;;;;;4.77;3.17;;;;;;;;;;4939486;29;20215;-80
2022/07/03 02:33:57;;;;;;;7.67;3.10;;;;;;;;;;4933295;29;20223;-81
2022/07/03 02:36:25;;;;;;;5.33;2.93;;;;;;;;;;4940113;29;20245;-82
2022/07/03 02:38:55;;;;;;;4.37;3.20;;;;;;;;;;4936463;29;20570;-80
2022/07/03 02:41:24;;;;;;;5.17;3.00;;;;;;;;;;4938832;29;20310;-82
2022/07/03 02:43:56;;;;;;;4.03;3.00;;;;;;;;;;4936594;29;20235;-83
2022/07/03 02:49:22;;;;;;;4.47;3.37;;;;;;;;;;4940516;29;20282;-84
2022/07/03 02:51:53;;;;;;;5.33;3.13;;;;;;;;;;4949336;29;20722;-83
2022/07/03 02:54:21;;;;;;;6.23;3.20;;;;;;;;;;4956522;29;20207;-83
2022/07/03 02:56:54;;;;;;;4.47;3.13;;;;;;;;;;4940358;29;20215;-84
2022/07/03 02:59:23;;;;;;;4.73;2.90;;;;;;;;;;4940150;29;20227;-83
2022/07/03 03:01:59;;;;;;;4.50;3.10;;;;;;;;;;4940113;29;20214;-83
2022/07/03 03:04:30;;;;;;;6.80;3.40;;;;;;;;;;4939909;29;20202;-83
2022/07/03 03:07:01;;;;;;;3.73;2.70;;;;;;;;;;4939866;29;20214;-82
2022/07/03 03:09:32;;;;;;;3.97;3.03;;;;;;;;;;4939786;29;20321;-81
2022/07/03 03:12:02;;;;;;;6.50;3.00;;;;;;;;;;4937184;29;20298;-83
2022/07/03 03:14:32;;;;;;;5.43;3.20;;;;;;;;;;4932294;29;20207;-83
2022/07/03 03:17:00;;;;;;;5.70;2.97;;;;;;;;;;4920788;29;20204;-83
2022/07/03 03:19:29;;;;;;;7.30;3.00;;;;;;;;;;4920067;29;20246;-83
2022/07/03 03:21:59;;;;;;;4.03;3.10;;;;;;;;;;4920582;29;20314;-81
2022/07/03 03:24:27;;;;;;;7.60;3.17;;;;;;;;;;4929639;29;20200;-82
2022/07/03 03:26:54;;;;;;;3.73;3.03;;;;;;;;;;4939937;29;20562;-82
2022/07/03 03:29:21;;;;;;;6.60;3.37;;;;;;;;;;4939858;29;20315;-82
2022/07/03 03:31:48;;;;;;;3.37;3.03;;;;;;;;;;4940217;29;20215;-83
2022/07/03 03:34:16;;;;;;;8.77;3.30;;;;;;;;;;4940069;29;20657;-83
2022/07/03 03:36:45;;;;;;;7.03;3.23;;;;;;;;;;4957882;29;20234;-84
2022/07/03 03:39:13;;;;;;;8.53;3.60;;;;;;;;;;4944210;29;20301;-84
2022/07/03 03:41:40;;;;;;;4.37;3.30;;;;;;;;;;4951095;29;20938;-82
2022/07/03 03:44:07;;;;;;;3.73;3.10;;;;;;;;;;4958356;29;20212;-83
2022/07/03 03:46:35;;;;;;;4.90;3.60;;;;;;;;;;4950706;29;20225;-81
2022/07/03 03:49:02;;;;;;;4.73;3.33;;;;;;;;;;4955759;28;20214;-82
2022/07/03 03:51:29;;;;;;;4.43;3.63;;;;;;;;;;4959466;29;20226;-82
2022/07/03 03:53:58;;;;;;;4.30;3.23;;;;;;;;;;4945804;29;20583;-82
2022/07/03 03:56:25;;;;;;;4.50;3.27;;;;;;;;;;4939379;29;20217;-82
2022/07/03 03:58:52;;;;;;;6.10;3.60;;;;;;;;;;4938763;29;20203;-83
2022/07/03 04:01:20;;;;;;;5.57;2.47;;;;;;;;;;4939587;29;20223;-83
2022/07/03 04:03:47;;;;;;;3.30;2.40;;;;;;;;;;4939030;29;20215;-83
2022/07/03 04:06:14;;;;;;;16.07;2.80;;;;;;;;;;4943222;29;20210;-83
2022/07/03 04:08:41;;;;;;;4.90;2.23;;;;;;;;;;4947763;29;20249;-84
2022/07/03 04:11:10;;;;;;;5.03;2.30;;;;;;;;;;4955840;29;20293;-83
2022/07/03 04:13:39;;;;;;;2.43;2.00;;;;;;;;;;4959782;29;20302;-84
2022/07/03 04:16:07;;;;;;;5.20;2.40;;;;;;;;;;4965541;29;20211;-83
2022/07/03 04:18:34;;;;;;;3.63;2.23;;;;;;;;;;4957328;29;20781;-83
2022/07/03 04:21:01;;;;;;;2.80;1.93;;;;;;;;;;4939878;29;20255;-82
2022/07/03 04:23:29;;;;;;;5.30;2.23;;;;;;;;;;4951861;28;20226;-80
2022/07/03 04:25:57;;;;;;;4.13;2.00;;;;;;;;;;4959551;28;20206;-80
2022/07/03 04:28:25;;;;;;;2.17;1.73;;;;;;;;;;4951608;29;20246;-82
2022/07/03 04:30:52;;;;;;;2.70;1.63;;;;;;;;;;4947746;29;20232;-82
2022/07/03 04:33:19;;;;;;;1.60;1.50;;;;;;;;;;4936301;29;20735;-82
2022/07/03 04:35:46;;;;;;;3.17;1.60;;;;;;;;;;4942034;29;20222;-82
2022/07/03 04:38:14;;;;;;;4.40;1.90;;;;;;;;;;4936867;29;20207;-83
2022/07/03 04:40:42;;;;;;;2.20;1.40;;;;;;;;;;4947389;28;20798;-83
2022/07/03 04:43:09;;;;;;;2.33;1.57;;;;;;;;;;4940497;29;20660;-82
2022/07/03 04:45:38;;;;;;;2.23;1.30;;;;;;;;;;4940170;29;20206;-81
2022/07/03 04:48:05;;;;;;;3.40;1.80;;;;;;;;;;4940677;29;20216;-82
2022/07/03 04:50:32;;;;;;;2.30;1.47;;;;;;;;;;4940155;29;20664;-82
2022/07/03 04:53:00;;;;;;;2.83;1.77;;;;;;;;;;4937287;29;20234;-83
2022/07/03 04:55:27;;;;;;;2.13;1.43;;;;;;;;;;4939132;29;20211;-81
2022/07/03 04:57:54;;;;;;;3.97;1.60;;;;;;;;;;4944077;29;20211;-82
2022/07/03 05:00:21;;;;;;;2.67;1.50;;;;;;;;;;4946825;29;20648;-83
2022/07/03 05:02:50;;;;;;;1.70;1.50;;;;;;;;;;4944410;29;20211;-82
2022/07/03 05:05:17;;;;;;;3.17;1.50;;;;;;;;;;4944617;29;20255;-82
2022/07/03 05:07:45;;;;;;;1.70;1.50;;;;;;;;;;4945853;29;20292;-83
2022/07/03 05:10:12;;;;;;;5.03;1.80;;;;;;;;;;4947284;28;20231;-81
2022/07/03 05:12:39;;;;;;;1.93;1.67;;;;;;;;;;4944055;29;20215;-82
2022/07/03 05:15:07;;;;;;;2.60;1.70;;;;;;;;;;4946579;29;20208;-82
2022/07/03 05:17:35;;;;;;;3.03;1.50;;;;;;;;;;4952937;29;20269;-81
2022/07/03 05:22:49;;;;;;;2.67;1.70;;;;;;;;;;4945781;29;20293;-83
2022/07/03 05:25:16;;;;;;;2.80;1.60;;;;;;;;;;4945976;29;20215;-82
2022/07/03 05:27:43;;;;;;;2.50;1.60;;;;;;;;;;4945810;29;20559;-82
2022/07/03 05:30:11;;;;;;;3.10;1.57;;;;;;;;;;4954532;28;20227;-82
2022/07/03 05:32:38;;;;;;;2.30;1.57;;;;;;;;;;4947305;29;20685;-83
2022/07/03 05:35:08;;;;;;;3.97;1.53;;;;;;;;;;4946186;29;20675;-82
2022/07/03 05:37:35;;;;;;;2.90;1.70;;;;;;;;;;4949131;29;20212;-81
2022/07/03 05:40:02;;;;;;;2.77;1.50;;;;;;;;;;4947418;29;20219;-82
2022/07/03 05:42:30;;;;;;;1.80;1.57;;;;;;;;;;4948525;29;20244;-82
2022/07/03 05:44:57;;;;;;;1.80;1.23;;;;;;;;;;4944607;29;20216;-82
2022/07/03 05:47:24;;;;;;;3.53;2.00;;;;;;;;;;4950601;28;20224;-83
2022/07/03 05:49:51;;;;;;;4.67;1.50;;;;;;;;;;4940451;29;20235;-82
2022/07/03 05:52:20;;;;;;;3.03;1.60;;;;;;;;;;4941811;29;20295;-80
2022/07/03 05:54:47;;;;;;;2.07;1.50;;;;;;;;;;4945901;29;20203;-83
2022/07/03 05:57:14;;;;;;;2.13;1.43;;;;;;;;;;4942122;29;20211;-84
2022/07/03 05:59:41;;;;;;;1.70;1.60;;;;;;;;;;4945005;29;20230;-84
2022/07/03 06:02:08;;;;;;;3.10;1.80;;;;;;;;;;4943956;29;20203;-83
2022/07/03 06:04:35;;;;;;;3.57;1.80;;;;;;;;;;4938624;29;20207;-83
2022/07/03 06:07:03;;;;;;;2.77;1.50;;;;;;;;;;4944457;29;20759;-85
2022/07/03 06:09:31;;;;;;;1.70;1.40;;;;;;;;;;4942938;29;20227;-83
2022/07/03 06:11:59;;;;;;;3.17;1.73;;;;;;;;;;4946962;29;20239;-84
2022/07/03 06:14:26;;;;;;;3.83;1.50;;;;;;;;;;4952623;29;20220;-84
2022/07/03 06:16:53;;;;;;;2.67;1.70;;;;;;;;;;4957850;28;20201;-82
2022/07/03 06:19:20;;;;;;;2.83;1.50;;;;;;;;;;4950025;28;20236;-83
2022/07/03 06:21:47;;;;;;;3.90;1.30;;;;;;;;;;4939364;29;20210;-83
2022/07/03 06:24:15;;;;;;;1.77;1.30;;;;;;;;;;4940485;29;20558;-82
2022/07/03 06:26:43;;;;;;;5.53;1.30;;;;;;;;;;4930385;29;20270;-83
2022/07/03 06:29:10;;;;;;;2.47;1.50;;;;;;;;;;4938780;29;20550;-83
2022/07/03 06:31:37;;;;;;;1.80;1.30;;;;;;;;;;4939812;29;20226;-84
2022/07/03 06:34:05;;;;;;;3.47;1.20;;;;;;;;;;4941735;29;20304;-83
2022/07/03 06:36:32;;;;;;;2.30;1.20;;;;;;;;;;4942850;29;20209;-83
2022/07/03 06:38:59;;;;;;;3.43;1.30;;;;;;;;;;4937801;29;20209;-84
2022/07/03 06:41:30;;;;;;;1.73;1.27;;;;;;;;;;4945960;29;20204;-82
2022/07/03 06:43:59;;;;;;;1.87;1.10;;;;;;;;;;4943894;29;20201;-83
2022/07/03 06:46:26;;;;;;;1.63;1.10;;;;;;;;;;4946841;28;20185;-82
2022/07/03 06:48:53;;;;;;;4.70;1.33;;;;;;;;;;4951873;28;20222;-82
2022/07/03 06:51:22;;;;;;;2.00;1.30;;;;;;;;;;4942662;29;20233;-83
2022/07/03 06:53:49;;;;;;;2.53;1.17;;;;;;;;;;4937799;29;20217;-82
2022/07/03 06:56:16;;;;;;;1.77;1.30;;;;;;;;;;4933668;29;20214;-82
2022/07/03 06:58:43;;;;;;;1.73;1.30;;;;;;;;;;4934615;29;20217;-82
2022/07/03 07:01:12;;;;;;;2.73;1.07;;;;;;;;;;4938326;29;20874;-82
2022/07/03 07:03:39;;;;;;;1.00;0.90;;;;;;;;;;4938459;29;20210;-82
2022/07/03 07:06:06;;;;;;;2.17;1.40;;;;;;;;;;4937658;29;20216;-82
2022/07/03 07:08:33;;;;;;;1.80;1.17;;;;;;;;;;4934233;29;20206;-83
2022/07/03 07:11:01;;;;;;;3.60;1.23;;;;;;;;;;4937176;29;20586;-82
2022/07/03 07:13:28;;;;;;;2.30;1.07;;;;;;;;;;4932086;29;20249;-81
2022/07/03 07:15:55;;;;;;;2.22;1.25;;;;;;;;;;4939792;29;20767;-82
2022/07/03 07:18:24;;;;;;;2.08;1.10;;;;;;;;;;4941634;29;20206;-82
2022/07/03 07:20:54;;;;;;;2.63;1.25;;;;;;;;;;4950067;23;20251;-81
2022/07/03 07:23:21;;;;;;;3.13;1.02;;;;;;;;;;4927288;29;20267;-81
2022/07/03 07:25:48;;;;;;;3.22;1.10;;;;;;;;;;4940112;29;20208;-81
2022/07/03 07:28:16;;;;;;;1.42;1.00;;;;;;;;;;4936370;29;20250;-81
2022/07/03 07:30:43;;;;;;;3.53;1.20;;;;;;;;;;4940347;28;20234;-82
2022/07/03 07:33:12;;;;;;;1.75;1.00;;;;;;;;;;4935207;29;20254;-81
2022/07/03 07:35:44;;;;;;;1.95;1.20;;;;;;;;;;4930271;29;20292;-81
2022/07/03 07:38:17;;;;;;;2.88;1.08;;;;;;;;;;4931391;29;20242;-81
2022/07/03 07:40:55;;;;;;;1.63;1.00;;;;;;;;;;4938210;29;20321;-81
2022/07/03 07:43:22;;;;;;;4.85;1.40;;;;;;;;;;4932537;29;20286;-82
2022/07/03 07:45:49;;;;;;;3.20;1.30;;;;;;;;;;4933030;29;20235;-81
2022/07/03 07:48:18;;;;;;;3.25;1.00;;;;;;;;;;4932003;29;20222;-81
2022/07/03 07:50:50;;;;;;;1.25;1.02;;;;;;;;;;4932952;28;20233;-81
2022/07/03 07:53:17;;;;;;;3.63;0.95;;;;;;;;;;4938292;29;20199;-81
2022/07/03 07:55:50;;;;;;;2.85;1.00;;;;;;;;;;4936145;29;20238;-81
2022/07/03 07:58:17;;;;;;;2.47;1.23;;;;;;;;;;4936418;29;20208;-81
2022/07/03 08:06:18;;;;;;;5.57;0.90;;;;;;;;;;4938063;29;20276;-81
2022/07/03 08:08:45;;;;;;;2.97;0.90;;;;;;;;;;4932040;29;20213;-81
2022/07/03 08:11:13;;;;;;;2.70;0.95;;;;;;;;;;4946089;28;20329;-81
2022/07/03 08:13:40;;;;;;;2.65;1.00;;;;;;;;;;4955257;28;20229;-81
2022/07/03 08:16:07;;;;;;;1.60;0.90;;;;;;;;;;4955014;28;20238;-80
2022/07/03 08:18:36;;;;;;;3.35;0.80;;;;;;;;;;4930576;29;20296;-80
2022/07/03 08:21:05;;;;;;;3.83;0.98;;;;;;;;;;4933947;29;20290;-81
2022/07/03 08:23:38;;;;;;;1.55;0.93;;;;;;;;;;4934222;29;20658;-81
2022/07/03 08:26:07;;;;;;;1.95;0.98;;;;;;;;;;4917354;29;20208;-81
2022/07/03 08:28:35;;;;;;;3.22;0.98;;;;;;;;;;4933498;29;20208;-81
2022/07/03 08:31:02;;;;;;;1.80;0.88;;;;;;;;;;4938909;29;20229;-82
2022/07/03 08:33:29;;;;;;;5.07;1.10;;;;;;;;;;4932034;29;20431;-82
2022/07/03 08:35:57;;;;;;;1.70;0.90;;;;;;;;;;4923534;29;20218;-82
2022/07/03 08:38:36;;;;;;;3.47;0.80;;;;;;;;;;4934515;29;20218;-83
2022/07/03 08:41:05;;;;;;;2.13;0.82;;;;;;;;;;4936766;28;20232;-82
2022/07/03 08:43:32;;;;;;;3.17;0.82;;;;;;;;;;4932424;29;20211;-82
2022/07/03 08:46:03;;;;;;;2.10;0.80;;;;;;;;;;4937980;29;20260;-83
2022/07/03 08:48:34;;;;;;;1.17;0.73;;;;;;;;;;4936361;29;20208;-83
2022/07/03 08:51:03;;;;;;;4.07;1.00;;;;;;;;;;4940475;29;20222;-83
2022/07/03 08:53:33;;;;;;;1.35;0.70;;;;;;;;;;4939002;29;20287;-82
2022/07/03 08:56:02;;;;;;;2.33;0.93;;;;;;;;;;4944423;29;20291;-83
2022/07/03 08:58:32;;;;;;;2.13;0.80;;;;;;;;;;4945167;28;20219;-82
2022/07/03 09:01:01;;;;;;;1.83;0.77;;;;;;;;;;4941119;29;20230;-80
2022/07/03 09:03:29;;;;;;;2.80;0.97;;;;;;;;;;4938255;28;20661;-79
2022/07/03 09:05:58;;;;;;;1.63;0.70;;;;;;;;;;4945135;29;20276;-80
2022/07/03 09:08:26;;;;;;;4.33;0.83;;;;;;;;;;4941091;29;20602;-80
2022/07/03 09:10:53;;;;;;;4.10;0.90;;;;;;;;;;4939853;29;20728;-81
2022/07/03 09:13:20;;;;;;;2.07;0.80;;;;;;;;;;4943041;28;20231;-79
2022/07/03 09:15:48;;;;;;;2.27;0.90;;;;;;;;;;4939246;28;20282;-79
2022/07/03 09:18:16;;;;;;;2.23;1.00;;;;;;;;;;4946659;29;20208;-80
2022/07/03 09:20:45;;;;;;;3.80;1.10;;;;;;;;;;4929281;29;20253;-81
2022/07/03 09:23:13;;;;;;;2.47;0.87;;;;;;;;;;4937036;29;20646;-80
2022/07/03 09:26:02;;;;;;;3.37;0.63;;;;;;;;;;4945298;29;20226;-80
2022/07/03 09:28:45;;;;;;;3.63;0.90;;;;;;;;;;4938291;29;20203;-79
2022/07/03 09:31:14;;;;;;;1.47;1.00;;;;;;;;;;4931008;29;20659;-79
2022/07/03 09:33:57;;;;;;;2.60;0.70;;;;;;;;;;4938647;29;20655;-80
2022/07/03 09:36:39;;;;;;;1.47;0.77;;;;;;;;;;4941812;29;20301;-80
2022/07/03 09:39:17;;;;;;;2.47;1.00;;;;;;;;;;4938024;29;20255;-80
2022/07/03 09:41:55;;;;;;;2.03;0.90;;;;;;;;;;4941552;29;20222;-81
2022/07/03 09:44:41;;;;;;;2.87;0.60;;;;;;;;;;4941025;28;20238;-81
2022/07/03 09:47:24;;;;;;;2.03;0.73;;;;;;;;;;4937986;29;20223;-79
2022/07/03 09:49:57;;;;;;;2.00;0.70;;;;;;;;;;4944132;29;20616;-81
2022/07/03 09:52:54;;;;;;;2.63;0.90;;;;;;;;;;4930211;29;20232;-81
2022/07/03 09:55:21;;;;;;;3.90;0.70;;;;;;;;;;4938158;29;20230;-80
2022/07/03 09:58:00;;;;;;;3.37;0.70;;;;;;;;;;4939369;29;20218;-80
2022/07/03 10:00:28;;;;;;;1.80;0.80;;;;;;;;;;4937211;28;20238;-82
2022/07/03 10:02:58;;;;;;;2.87;1.00;;;;;;;;;;4940905;29;20207;-81
2022/07/03 10:05:38;;;;;;;2.60;0.63;;;;;;;;;;4933866;29;20202;-81
2022/07/03 10:08:08;;;;;;;5.53;3.83;;;;;;;;;;4938504;29;20234;-82
2022/07/03 10:10:37;;;;;;;2.83;1.00;;;;;;;;;;4938372;29;20237;-82
2022/07/03 10:13:07;;;;;;;3.30;0.90;;;;;;;;;;4941705;29;20253;-83
2022/07/03 10:15:36;;;;;;;2.13;0.80;;;;;;;;;;4941610;29;20267;-83
2022/07/03 10:18:07;;;;;;;20.93;1.10;;;;;;;;;;4935727;29;20273;-83
2022/07/03 10:20:36;;;;;;;2.37;0.90;;;;;;;;;;4935344;29;20322;-83
2022/07/03 10:23:15;;;;;;;8.33;6.10;;;;;;;;;;4937169;29;20243;-82
2022/07/03 10:25:47;;;;;;;3.43;0.90;;;;;;;;;;4937626;29;20535;-83
2022/07/03 10:28:16;;;;;;;1.53;0.80;;;;;;;;;;4938826;29;20302;-82
2022/07/03 10:30:44;;;;;;;6.13;3.07;;;;;;;;;;4939135;29;21108;-82
2022/07/03 10:33:14;;;;;;;3.17;1.40;;;;;;;;;;4934954;29;20227;-82
2022/07/03 10:35:48;;;;;;;4.90;1.30;;;;;;;;;;4932701;29;20214;-83
2022/07/03 10:38:22;;;;;;;3.60;1.70;;;;;;;;;;4935101;29;20203;-82
2022/07/03 10:46:36;;;;;;;19.93;13.93;;;;;;;;;;4934228;29;20286;-83
2022/07/03 10:49:07;;;;;;;3.53;1.17;;;;;;;;;;4936990;29;20231;-82
2022/07/03 10:51:52;;;;;;;3.90;2.30;;;;;;;;;;4936235;29;20230;-83
2022/07/03 10:54:20;;;;;;;2.20;0.97;;;;;;;;;;4936163;29;20217;-83
2022/07/03 10:57:08;;;;;;;3.00;0.80;;;;;;;;;;4938638;29;20210;-83
2022/07/03 10:59:57;;;;;;;7.10;0.90;;;;;;;;;;4938681;29;20239;-83
2022/07/03 11:02:24;;;;;;;1.90;0.60;;;;;;;;;;4935426;29;22567;-83
2022/07/03 11:05:12;;;;;;;2.40;0.60;;;;;;;;;;4938997;29;20334;-83
2022/07/03 11:08:04;;;;;;;1.23;0.60;;;;;;;;;;4941647;28;20231;-83
2022/07/03 11:10:34;;;;;;;12.07;5.50;;;;;;;;;;4938956;29;20231;-82
2022/07/03 11:13:03;;;;;;;3.87;2.00;;;;;;;;;;4938195;29;20331;-83
2022/07/03 11:15:31;;;;;;;3.17;0.90;;;;;;;;;;4936284;29;21032;-83
2022/07/03 11:18:16;;;;;;;6.10;2.70;;;;;;;;;;4934909;29;20215;-80
2022/07/03 11:21:02;;;;;;;1.30;0.87;;;;;;;;;;4934931;28;20235;-82
2022/07/03 11:23:30;;;;;;;1.67;1.10;;;;;;;;;;4935078;29;20210;-81
2022/07/03 11:26:02;;;;;;;1.23;0.80;;;;;;;;;;4940930;29;20290;-80
2022/07/03 11:28:50;;;;;;;1.33;0.70;;;;;;;;;;4938323;29;20238;-81
2022/07/03 11:31:22;;;;;;;3.30;0.90;;;;;;;;;;4937050;29;20233;-81
2022/07/03 11:33:59;;;;;;;6.67;0.90;;;;;;;;;;4941482;29;20235;-81
2022/07/03 11:36:28;;;;;;;0.90;0.50;;;;;;;;;;4949299;29;20244;-79
2022/07/03 11:39:04;;;;;;;2.53;0.70;;;;;;;;;;4945314;29;20279;-80
2022/07/03 11:41:47;;;;;;;2.70;0.80;;;;;;;;;;4935964;29;20230;-80
2022/07/03 11:44:28;;;;;;;3.70;0.60;;;;;;;;;;4943419;29;20203;-80
2022/07/03 11:46:57;;;;;;;2.37;0.70;;;;;;;;;;4933292;29;21128;-82
2022/07/03 11:49:26;;;;;;;0.90;0.60;;;;;;;;;;4935221;29;20216;-81
2022/07/03 11:51:58;;;;;;;2.20;0.70;;;;;;;;;;4938545;29;20231;-81
2022/07/03 11:54:27;;;;;;;4.00;0.80;;;;;;;;;;4930465;29;20218;-81
2022/07/03 11:56:57;;;;;;;1.47;0.67;;;;;;;;;;4936090;29;20218;-81
2022/07/03 11:59:24;;;;;;;2.23;0.70;;;;;;;;;;4937262;29;20233;-82
2022/07/03 12:01:52;;;;;;;4.77;0.80;;;;;;;;;;4936929;29;20252;-82
2022/07/03 12:04:20;;;;;;;4.57;0.70;;;;;;;;;;4931690;29;20208;-81
2022/07/03 12:06:49;;;;;;;1.00;0.60;;;;;;;;;;4935379;29;20217;-81
2022/07/03 12:12:06;;;;;;;2.47;0.70;;;;;;;;;;4932139;29;20230;-82
2022/07/03 12:14:48;;;;;;;2.60;0.70;;;;;;;;;;4933640;29;20223;-82
2022/07/03 12:17:17;;;;;;;1.03;0.60;;;;;;;;;;4937923;29;20234;-82
2022/07/03 12:19:48;;;;;;;2.87;0.70;;;;;;;;;;4933732;29;20672;-82
2022/07/03 12:22:30;;;;;;;4.33;1.17;;;;;;;;;;4935241;28;20240;-81
2022/07/03 12:25:01;;;;;;;1.67;0.70;;;;;;;;;;4932273;29;20214;-81
2022/07/03 12:27:32;;;;;;;2.07;0.90;;;;;;;;;;4928098;29;20286;-81
2022/07/03 12:29:59;;;;;;;2.30;0.80;;;;;;;;;;4936892;29;20214;-81
2022/07/03 12:32:27;;;;;;;3.10;0.90;;;;;;;;;;4937004;29;20227;-82
2022/07/03 12:35:00;;;;;;;2.30;0.73;;;;;;;;;;4933255;29;20269;-82
2022/07/03 12:37:34;;;;;;;1.67;0.70;;;;;;;;;;4938283;29;20199;-82
2022/07/03 12:40:01;;;;;;;1.27;0.87;;;;;;;;;;4938535;29;20207;-81
2022/07/03 12:45:31;;;;;;;5.40;3.20;;;;;;;;;;4899220;29;20234;-82
2022/07/03 12:47:59;;;;;;;1.47;0.60;;;;;;;;;;4938759;29;20239;-82
2022/07/03 12:50:26;;;;;;;2.53;0.63;;;;;;;;;;4934998;29;20212;-81
2022/07/03 12:55:45;;;;;;;2.20;0.73;;;;;;;;;;4926041;29;20222;-82
2022/07/03 13:01:03;;;;;;;2.10;0.80;;;;;;;;;;4934881;29;20709;-81
2022/07/03 13:03:32;;;;;;;4.83;1.00;;;;;;;;;;4931136;29;20235;-82
2022/07/03 13:06:00;;;;;;;1.43;0.67;;;;;;;;;;4925708;29;20680;-82
2022/07/03 13:08:27;;;;;;;1.77;0.70;;;;;;;;;;4931483;29;20295;-82
2022/07/03 13:11:02;;;;;;;2.40;0.80;;;;;;;;;;4935564;29;20262;-82
2022/07/03 13:13:47;;;;;;;1.77;0.90;;;;;;;;;;4930430;29;20230;-81
2022/07/03 13:16:29;;;;;;;1.17;0.63;;;;;;;;;;4936324;29;20217;-81
2022/07/03 13:18:59;;;;;;;2.43;0.80;;;;;;;;;;4940195;29;20290;-81
2022/07/03 13:21:29;;;;;;;1.87;0.67;;;;;;;;;;4935585;28;20699;-81
2022/07/03 13:23:57;;;;;;;1.50;0.80;;;;;;;;;;4937487;29;20207;-81
2022/07/03 13:26:25;;;;;;;3.73;1.20;;;;;;;;;;4936360;29;20231;-81
2022/07/03 13:28:53;;;;;;;2.80;0.60;;;;;;;;;;4939098;29;20204;-82
2022/07/03 13:31:21;;;;;;;2.07;0.60;;;;;;;;;;4935618;29;20236;-82
2022/07/03 13:33:58;;;;;;;2.10;0.60;;;;;;;;;;4941644;29;20230;-82
2022/07/03 13:36:25;;;;;;;3.07;0.60;;;;;;;;;;4940589;29;20293;-82
2022/07/03 13:38:53;;;;;;;1.20;0.83;;;;;;;;;;4945596;29;20219;-81
2022/07/03 13:41:22;;;;;;;2.83;0.80;;;;;;;;;;4935807;29;20236;-81
2022/07/03 13:43:51;;;;;;;1.50;0.70;;;;;;;;;;4936898;29;20216;-81
2022/07/03 13:46:18;;;;;;;2.63;0.70;;;;;;;;;;4944135;29;20242;-81
2022/07/03 13:48:46;;;;;;;2.80;0.93;;;;;;;;;;4937440;29;20208;-81
2022/07/03 13:51:15;;;;;;;2.60;0.87;;;;;;;;;;4938127;29;20235;-82
2022/07/03 13:53:42;;;;;;;2.40;0.90;;;;;;;;;;4940993;29;20230;-82
2022/07/03 13:56:10;;;;;;;1.30;0.70;;;;;;;;;;4938849;29;20248;-83
2022/07/03 13:58:41;;;;;;;1.80;0.97;;;;;;;;;;4935804;29;20304;-82
2022/07/03 14:03:50;;;;;;;2.10;0.77;;;;;;;;;;4928149;29;20679;-83
2022/07/03 14:06:18;;;;;;;1.37;0.83;;;;;;;;;;4932915;29;20239;-82
2022/07/03 14:08:46;;;;;;;2.43;0.77;;;;;;;;;;4935783;29;20296;-82
2022/07/03 14:11:14;;;;;;;1.53;0.70;;;;;;;;;;4939047;29;20226;-82
2022/07/03 14:13:42;;;;;;;5.17;0.73;;;;;;;;;;4936049;29;20302;-82
2022/07/03 14:16:09;;;;;;;1.07;0.60;;;;;;;;;;4938673;29;20218;-82
2022/07/03 14:21:31;;;;;;;1.73;0.80;;;;;;;;;;4932348;28;20563;-82
2022/07/03 14:23:58;;;;;;;2.73;0.73;;;;;;;;;;4937501;29;20203;-82
2022/07/03 14:34:41;;;;;;;3.23;0.80;;;;;;;;;;4928567;29;20634;-81
2022/07/03 14:37:10;;;;;;;4.13;0.93;;;;;;;;;;4937721;29;20203;-81
2022/07/03 14:39:37;;;;;;;1.63;0.80;;;;;;;;;;4936303;29;20213;-82
2022/07/03 14:42:04;;;;;;;2.67;0.80;;;;;;;;;;4934422;29;20318;-83
2022/07/03 14:44:32;;;;;;;1.07;0.60;;;;;;;;;;4942186;29;20219;-83
2022/07/03 14:47:01;;;;;;;1.53;0.60;;;;;;;;;;4935405;29;20271;-82
2022/07/03 14:49:28;;;;;;;1.60;0.70;;;;;;;;;;4934359;29;20216;-82
2022/07/03 14:51:57;;;;;;;1.40;0.60;;;;;;;;;;4937658;29;20934;-83
2022/07/03 14:54:31;;;;;;;1.00;0.60;;;;;;;;;;4932731;29;20219;-82
2022/07/03 14:57:02;;;;;;;0.73;0.70;;;;;;;;;;4939132;29;20195;-82
2022/07/03 14:59:36;;;;;;;2.50;0.80;;;;;;;;;;4971310;23;20227;-79
2022/07/03 15:02:04;;;;;;;2.80;0.80;;;;;;;;;;4970425;28;20213;-79
2022/07/03 15:04:38;;;;;;;1.40;0.67;;;;;;;;;;4968101;28;20210;-78
2022/07/03 15:07:05;;;;;;;2.70;0.67;;;;;;;;;;4978994;28;20213;-79
2022/07/03 15:09:37;;;;;;;2.00;0.73;;;;;;;;;;4968185;28;20239;-79
2022/07/03 15:14:51;;;;;;;1.90;0.67;;;;;;;;;;4956891;28;20285;-80
2022/07/03 15:17:21;;;;;;;4.03;0.80;;;;;;;;;;4956092;28;20301;-79
2022/07/03 15:19:50;;;;;;;1.37;0.70;;;;;;;;;;4943096;28;20314;-79
2022/07/03 15:22:17;;;;;;;1.63;0.70;;;;;;;;;;4961069;28;20224;-79
2022/07/03 15:24:47;;;;;;;1.37;0.87;;;;;;;;;;4960614;28;20371;-79
2022/07/03 15:27:15;;;;;;;2.37;0.77;;;;;;;;;;4957787;28;20285;-79
2022/07/03 15:29:43;;;;;;;1.33;0.50;;;;;;;;;;4957697;28;20218;-78
2022/07/03 15:32:11;;;;;;;1.33;0.90;;;;;;;;;;4958583;28;20221;-79
2022/07/03 15:34:38;;;;;;;1.97;0.60;;;;;;;;;;4958644;28;20999;-79
2022/07/03 15:37:09;;;;;;;2.43;0.60;;;;;;;;;;4957213;28;20206;-79
2022/07/03 15:39:39;;;;;;;2.33;0.60;;;;;;;;;;4958944;28;20619;-79
2022/07/03 15:42:14;;;;;;;2.10;0.53;;;;;;;;;;4958940;28;20202;-78
2022/07/03 15:44:49;;;;;;;1.10;0.70;;;;;;;;;;4956211;28;20293;-79